createdAt,value
2017-04-10T00:00:38.278Z,8.90
2017-04-10T00:02:38.823Z,8.90
2017-04-10T00:03:39.516Z,8.90
2017-04-10T00:04:39.518Z,8.80
2017-04-10T00:05:40.899Z,8.80
2017-04-10T00:06:41.881Z,8.80
2017-04-10T00:07:42.599Z,8.80
2017-04-10T00:08:42.555Z,8.80
2017-04-10T00:09:43.286Z,8.80
2017-04-10T00:10:43.998Z,8.80
2017-04-10T00:11:44.726Z,8.80
2017-04-10T00:12:45.766Z,8.80
2017-04-10T00:13:45.677Z,8.80
2017-04-10T00:14:45.635Z,8.80
2017-04-10T00:15:45.659Z,8.80
2017-04-10T00:16:45.577Z,8.80
2017-04-10T00:17:45.969Z,8.80
2017-04-10T00:18:45.684Z,8.80
2017-04-10T00:21:16.329Z,8.80
2017-04-10T00:22:16.305Z,8.80
2017-04-10T00:23:23.033Z,8.80
2017-04-10T00:24:23.039Z,8.70
2017-04-10T00:25:23.003Z,8.80
2017-04-10T00:26:23.735Z,8.70
2017-04-10T00:27:23.719Z,8.70
2017-04-10T00:28:24.828Z,8.70
2017-04-10T00:29:24.791Z,8.70
2017-04-10T00:30:24.747Z,8.70
2017-04-10T00:31:24.690Z,8.70
2017-04-10T00:32:24.702Z,8.70
2017-04-10T00:33:25.053Z,8.70
2017-04-10T00:34:25.049Z,8.70
2017-04-10T00:35:25.031Z,8.70
2017-04-10T00:36:24.987Z,8.70
2017-04-10T00:37:24.965Z,8.70
2017-04-10T00:38:25.294Z,8.70
2017-04-10T00:40:25.295Z,8.70
2017-04-10T00:41:25.303Z,8.70
2017-04-10T00:42:25.048Z,8.70
2017-04-10T00:43:25.339Z,8.60
2017-04-10T00:44:25.294Z,8.70
2017-04-10T00:45:25.177Z,8.70
2017-04-10T00:46:25.833Z,8.60
2017-04-10T00:47:25.828Z,8.70
2017-04-10T00:48:26.186Z,8.70
2017-04-10T00:49:26.148Z,8.70
2017-04-10T00:50:26.067Z,8.70
2017-04-10T00:51:26.000Z,8.60
2017-04-10T00:52:25.926Z,8.70
2017-04-10T00:53:26.322Z,8.70
2017-04-10T00:54:26.290Z,8.70
2017-04-10T00:55:25.998Z,8.70
2017-04-10T00:56:25.998Z,8.70
2017-04-10T00:57:25.946Z,8.70
2017-04-10T00:58:26.325Z,8.70
2017-04-10T00:59:26.289Z,8.70
2017-04-10T01:00:26.306Z,8.70
2017-04-10T01:01:26.229Z,8.70
2017-04-10T01:02:26.280Z,8.70
2017-04-10T01:03:26.580Z,8.70
2017-04-10T01:04:26.633Z,8.70
2017-04-10T01:05:26.601Z,8.70
2017-04-10T01:06:26.539Z,8.60
2017-04-10T01:07:26.568Z,8.60
2017-04-10T01:08:26.899Z,8.60
2017-04-10T01:09:26.869Z,8.60
2017-04-10T01:10:26.897Z,8.60
2017-04-10T01:11:26.929Z,8.60
2017-04-10T01:13:27.186Z,8.50
2017-04-10T01:14:27.440Z,8.50
2017-04-10T01:15:27.421Z,8.50
2017-04-10T01:16:27.380Z,8.40
2017-04-10T01:17:27.343Z,8.40
2017-04-10T01:18:27.590Z,8.40
2017-04-10T01:19:27.613Z,8.40
2017-04-10T01:20:27.656Z,8.40
2017-04-10T01:21:27.624Z,8.40
2017-04-10T01:22:28.344Z,8.30
2017-04-10T01:23:29.560Z,8.30
2017-04-10T01:24:29.522Z,8.30
2017-04-10T01:25:29.534Z,8.30
2017-04-10T01:26:29.532Z,8.30
2017-04-10T01:27:29.465Z,8.30
2017-04-10T01:28:29.792Z,8.20
2017-04-10T01:29:30.598Z,8.20
2017-04-10T01:30:30.768Z,8.20
2017-04-10T01:31:32.289Z,8.20
2017-04-10T01:32:32.509Z,8.20
2017-04-10T01:33:33.624Z,8.10
2017-04-10T01:34:33.620Z,8.10
2017-04-10T01:35:33.716Z,8.10
2017-04-10T01:36:33.659Z,8.10
2017-04-10T01:37:34.390Z,8.10
2017-04-10T01:38:35.382Z,8.10
2017-04-10T01:39:35.317Z,8.00
2017-04-10T01:40:35.848Z,8.00
2017-04-10T01:41:35.636Z,8.00
2017-04-10T01:42:35.745Z,8.00
2017-04-10T01:43:36.740Z,8.00
2017-04-10T01:44:36.805Z,8.00
2017-04-10T01:45:36.769Z,8.00
2017-04-10T01:46:36.784Z,7.90
2017-04-10T01:47:36.742Z,7.90
2017-04-10T01:48:37.056Z,7.90
2017-04-10T01:49:36.805Z,7.90
2017-04-10T01:50:36.795Z,7.90
2017-04-10T01:51:36.746Z,7.90
2017-04-10T01:52:36.723Z,7.90
2017-04-10T01:53:36.975Z,7.90
2017-04-10T01:54:36.929Z,7.90
2017-04-10T01:55:36.939Z,7.80
2017-04-10T01:56:36.886Z,7.80
2017-04-10T01:57:36.840Z,7.80
2017-04-10T01:58:37.079Z,7.80
2017-04-10T01:59:37.840Z,7.80
2017-04-10T02:00:37.894Z,7.80
2017-04-10T02:01:37.612Z,7.80
2017-04-10T02:02:38.338Z,7.80
2017-04-10T02:03:39.434Z,7.70
2017-04-10T02:04:39.396Z,7.80
2017-04-10T02:05:39.175Z,7.80
2017-04-10T02:06:39.899Z,7.80
2017-04-10T02:07:40.614Z,7.80
2017-04-10T02:08:41.102Z,7.80
2017-04-10T02:09:41.166Z,7.80
2017-04-10T02:10:41.149Z,7.80
2017-04-10T02:11:41.975Z,7.80
2017-04-10T02:12:42.696Z,7.80
2017-04-10T02:13:43.690Z,7.80
2017-04-10T02:14:43.634Z,7.80
2017-04-10T02:15:44.315Z,7.80
2017-04-10T02:16:45.289Z,7.80
2017-04-10T02:17:45.315Z,7.80
2017-04-10T02:18:45.700Z,7.80
2017-04-10T02:19:46.402Z,7.80
2017-04-10T02:20:46.316Z,7.80
2017-04-10T02:21:46.131Z,7.80
2017-04-10T02:22:46.096Z,7.80
2017-04-10T02:23:46.484Z,7.90
2017-04-10T02:24:46.497Z,7.90
2017-04-10T02:25:46.414Z,7.90
2017-04-10T02:26:46.427Z,7.90
2017-04-10T02:27:46.365Z,7.90
2017-04-10T02:28:47.461Z,7.80
2017-04-10T02:29:47.203Z,7.90
2017-04-10T02:30:47.914Z,7.80
2017-04-10T02:31:48.618Z,7.90
2017-04-10T02:32:48.570Z,7.90
2017-04-10T02:33:48.840Z,7.90
2017-04-10T02:34:48.567Z,7.80
2017-04-10T02:35:49.317Z,7.80
2017-04-10T02:36:49.290Z,7.90
2017-04-10T02:37:49.235Z,7.80
2017-04-10T02:38:49.609Z,7.80
2017-04-10T02:39:50.324Z,7.80
2017-04-10T02:40:51.100Z,7.80
2017-04-10T02:41:51.029Z,7.80
2017-04-10T02:42:51.073Z,7.80
2017-04-10T02:43:52.174Z,7.80
2017-04-10T02:44:52.175Z,7.80
2017-04-10T02:45:52.190Z,7.80
2017-04-10T02:46:52.125Z,7.80
2017-04-10T02:47:52.811Z,7.80
2017-04-10T02:48:53.225Z,7.80
2017-04-10T02:49:53.193Z,7.80
2017-04-10T02:50:53.201Z,7.80
2017-04-10T02:51:53.717Z,7.80
2017-04-10T02:52:53.730Z,7.80
2017-04-10T02:53:53.987Z,7.80
2017-04-10T02:54:53.976Z,7.80
2017-04-10T02:55:54.022Z,7.80
2017-04-10T02:56:53.985Z,7.80
2017-04-10T02:57:53.919Z,7.80
2017-04-10T02:58:54.950Z,7.80
2017-04-10T02:59:55.732Z,7.70
2017-04-10T03:00:55.842Z,7.70
2017-04-10T03:01:55.651Z,7.70
2017-04-10T03:02:55.563Z,7.70
2017-04-10T03:03:55.875Z,7.70
2017-04-10T03:04:55.861Z,7.70
2017-04-10T03:05:57.309Z,7.70
2017-04-10T03:06:57.234Z,7.70
2017-04-10T03:07:57.208Z,7.70
2017-04-10T03:08:57.498Z,7.70
2017-04-10T03:09:57.520Z,7.70
2017-04-10T03:10:57.500Z,7.70
2017-04-10T03:11:57.469Z,7.70
2017-04-10T03:12:57.441Z,7.70
2017-04-10T03:13:57.724Z,7.70
2017-04-10T03:14:57.723Z,7.70
2017-04-10T03:15:58.499Z,7.60
2017-04-10T03:16:58.559Z,7.60
2017-04-10T03:17:58.480Z,7.60
2017-04-10T03:18:58.845Z,7.50
2017-04-10T03:19:58.839Z,7.50
2017-04-10T03:20:58.787Z,7.50
2017-04-10T03:21:58.782Z,7.40
2017-04-10T03:22:59.659Z,7.40
2017-04-10T03:23:59.715Z,7.40
2017-04-10T03:25:00.472Z,7.30
2017-04-10T03:26:00.385Z,7.30
2017-04-10T03:27:01.166Z,7.30
2017-04-10T03:28:01.841Z,7.20
2017-04-10T03:29:02.086Z,7.20
2017-04-10T03:30:02.774Z,7.20
2017-04-10T03:31:05.552Z,7.20
2017-04-10T03:32:05.519Z,7.20
2017-04-10T03:33:05.542Z,7.20
2017-04-10T03:34:06.257Z,7.20
2017-04-10T03:35:06.231Z,7.20
2017-04-10T03:36:06.964Z,7.20
2017-04-10T03:37:06.927Z,7.30
2017-04-10T03:38:06.661Z,7.30
2017-04-10T03:39:06.745Z,7.30
2017-04-10T03:40:06.758Z,7.30
2017-04-10T03:41:07.489Z,7.30
2017-04-10T03:42:08.189Z,7.30
2017-04-10T03:43:07.960Z,7.40
2017-04-10T03:44:08.391Z,7.40
2017-04-10T03:45:08.501Z,7.40
2017-04-10T03:46:08.476Z,7.40
2017-04-10T03:47:08.459Z,7.40
2017-04-10T03:48:08.521Z,7.40
2017-04-10T03:49:09.549Z,7.40
2017-04-10T03:50:09.481Z,7.40
2017-04-10T03:51:09.247Z,7.40
2017-04-10T03:52:08.999Z,7.30
2017-04-10T03:53:09.015Z,7.30
2017-04-10T03:54:08.983Z,7.30
2017-04-10T03:55:09.258Z,7.30
2017-04-10T03:56:09.250Z,7.30
2017-04-10T03:57:09.247Z,7.30
2017-04-10T03:58:09.245Z,7.30
2017-04-10T03:59:09.045Z,7.30
2017-04-10T04:00:09.016Z,7.30
2017-04-10T04:01:09.340Z,7.20
2017-04-10T04:02:09.252Z,7.20
2017-04-10T04:03:09.783Z,7.20
2017-04-10T04:04:10.487Z,7.20
2017-04-10T04:05:11.239Z,7.20
2017-04-10T04:06:11.602Z,7.20
2017-04-10T04:08:11.701Z,7.20
2017-04-10T04:09:11.673Z,7.20
2017-04-10T04:10:12.359Z,7.20
2017-04-10T04:11:12.724Z,7.20
2017-04-10T04:12:12.782Z,7.10
2017-04-10T04:13:12.746Z,7.20
2017-04-10T04:14:12.464Z,7.10
2017-04-10T04:15:13.238Z,7.10
2017-04-10T04:16:14.309Z,7.10
2017-04-10T04:17:14.322Z,7.10
2017-04-10T04:18:14.257Z,7.10
2017-04-10T04:19:14.294Z,7.10
2017-04-10T04:20:14.275Z,7.10
2017-04-10T04:21:15.313Z,7.10
2017-04-10T04:22:16.059Z,7.00
2017-04-10T04:23:15.843Z,7.00
2017-04-10T04:24:16.579Z,7.00
2017-04-10T04:25:16.554Z,7.00
2017-04-10T04:26:16.966Z,7.00
2017-04-10T04:27:16.995Z,7.00
2017-04-10T04:28:17.708Z,7.00
2017-04-10T04:29:18.373Z,7.00
2017-04-10T04:30:18.306Z,7.00
2017-04-10T04:31:18.621Z,7.00
2017-04-10T04:32:18.569Z,7.00
2017-04-10T04:33:18.577Z,7.00
2017-04-10T04:34:18.550Z,7.00
2017-04-10T04:35:18.497Z,7.00
2017-04-10T04:36:18.849Z,7.00
2017-04-10T04:37:18.803Z,7.00
2017-04-10T04:38:18.798Z,7.00
2017-04-10T04:39:19.488Z,7.00
2017-04-10T04:40:19.439Z,7.00
2017-04-10T04:41:19.808Z,7.00
2017-04-10T04:42:19.827Z,7.00
2017-04-10T04:43:20.366Z,7.00
2017-04-10T04:44:21.077Z,7.00
2017-04-10T04:45:21.786Z,7.00
2017-04-10T04:46:22.288Z,7.00
2017-04-10T04:47:22.368Z,7.00
2017-04-10T04:48:22.332Z,7.10
2017-04-10T04:49:23.079Z,7.10
2017-04-10T04:50:23.076Z,7.10
2017-04-10T04:51:24.109Z,7.10
2017-04-10T04:52:24.049Z,7.20
2017-04-10T04:53:24.050Z,7.20
2017-04-10T04:54:23.914Z,7.20
2017-04-10T04:55:24.600Z,7.30
2017-04-10T04:56:25.033Z,7.40
2017-04-10T04:57:24.751Z,7.70
2017-04-10T04:58:25.415Z,7.90
2017-04-10T04:59:25.173Z,8.20
2017-04-10T05:00:24.977Z,8.40
2017-04-10T05:01:25.996Z,8.70
2017-04-10T05:02:25.950Z,8.90
2017-04-10T05:03:25.876Z,9.10
2017-04-10T05:04:25.809Z,9.30
2017-04-10T05:05:26.529Z,9.50
2017-04-10T05:06:27.567Z,9.70
2017-04-10T05:07:28.272Z,9.80
2017-04-10T05:08:28.232Z,10.00
2017-04-10T05:09:28.217Z,10.20
2017-04-10T05:10:28.241Z,10.20
2017-04-10T05:11:28.421Z,10.10
2017-04-10T05:12:29.101Z,10.00
2017-04-10T05:13:29.058Z,9.90
2017-04-10T05:14:29.030Z,9.70
2017-04-10T05:15:29.777Z,9.50
2017-04-10T05:16:30.602Z,9.40
2017-04-10T05:17:30.662Z,9.30
2017-04-10T05:18:30.653Z,9.20
2017-04-10T05:19:30.563Z,9.00
2017-04-10T05:20:30.510Z,8.90
2017-04-10T05:21:31.660Z,8.80
2017-04-10T05:22:32.332Z,8.70
2017-04-10T05:23:32.323Z,8.60
2017-04-10T05:24:32.278Z,8.50
2017-04-10T05:25:33.052Z,8.40
2017-04-10T05:26:33.393Z,8.30
2017-04-10T05:27:33.371Z,8.20
2017-04-10T05:28:33.353Z,8.10
2017-04-10T05:29:33.385Z,8.10
2017-04-10T05:30:33.381Z,8.00
2017-04-10T05:31:33.624Z,8.00
2017-04-10T05:32:33.568Z,8.00
2017-04-10T05:33:34.275Z,7.90
2017-04-10T05:34:35.061Z,7.90
2017-04-10T05:35:34.813Z,7.90
2017-04-10T05:36:35.836Z,7.90
2017-04-10T05:37:36.569Z,7.90
2017-04-10T05:38:37.329Z,7.90
2017-04-10T05:39:37.350Z,7.90
2017-04-10T05:40:37.091Z,7.90
2017-04-10T05:41:37.187Z,7.80
2017-04-10T05:42:37.935Z,7.90
2017-04-10T05:43:37.942Z,7.80
2017-04-10T05:44:37.887Z,7.90
2017-04-10T05:45:38.679Z,7.90
2017-04-10T05:46:39.142Z,7.90
2017-04-10T05:47:39.830Z,7.90
2017-04-10T05:48:39.643Z,7.90
2017-04-10T05:49:39.669Z,7.90
2017-04-10T05:50:39.663Z,8.00
2017-04-10T05:51:40.007Z,8.00
2017-04-10T05:52:39.968Z,8.00
2017-04-10T05:53:39.657Z,8.10
2017-04-10T05:54:39.680Z,8.10
2017-04-10T05:55:39.687Z,8.20
2017-04-10T05:56:40.761Z,8.30
2017-04-10T05:57:40.752Z,8.40
2017-04-10T05:58:40.765Z,8.50
2017-04-10T05:59:40.741Z,8.60
2017-04-10T06:00:40.804Z,8.70
2017-04-10T06:01:41.908Z,8.70
2017-04-10T06:02:41.886Z,8.90
2017-04-10T06:03:41.936Z,9.00
2017-04-10T06:04:42.656Z,9.00
2017-04-10T06:05:43.312Z,9.10
2017-04-10T06:06:43.562Z,9.20
2017-04-10T06:07:43.534Z,9.30
2017-04-10T06:08:43.522Z,9.30
2017-04-10T06:09:43.512Z,9.30
2017-04-10T06:10:44.242Z,9.40
2017-04-10T06:11:45.259Z,9.50
2017-04-10T06:12:45.989Z,9.60
2017-04-10T06:13:46.759Z,9.60
2017-04-10T06:14:46.723Z,9.60
2017-04-10T06:16:47.020Z,9.70
2017-04-10T06:17:46.993Z,9.90
2017-04-10T06:18:46.952Z,10.00
2017-04-10T06:19:46.925Z,10.20
2017-04-10T06:20:46.947Z,10.30
2017-04-10T06:21:47.952Z,10.40
2017-04-10T06:22:47.882Z,10.60
2017-04-10T06:24:48.720Z,10.80
2017-04-10T06:25:48.683Z,10.90
2017-04-10T06:26:48.975Z,11.10
2017-04-10T06:27:48.968Z,11.20
2017-04-10T06:28:48.990Z,11.30
2017-04-10T06:29:49.711Z,11.40
2017-04-10T06:30:49.799Z,11.50
2017-04-10T06:31:50.116Z,11.50
2017-04-10T06:32:50.181Z,11.50
2017-04-10T06:33:50.179Z,11.60
2017-04-10T06:34:50.143Z,11.60
2017-04-10T06:35:50.136Z,11.50
2017-04-10T06:36:50.511Z,11.50
2017-04-10T06:37:50.543Z,11.50
2017-04-10T06:38:51.246Z,11.50
2017-04-10T06:39:51.227Z,11.60
2017-04-10T06:40:51.294Z,11.60
2017-04-10T06:41:51.790Z,11.60
2017-04-10T06:42:52.581Z,11.60
2017-04-10T06:43:52.610Z,11.60
2017-04-10T06:44:52.569Z,11.50
2017-04-10T06:45:52.518Z,11.50
2017-04-10T06:46:52.650Z,11.50
2017-04-10T06:48:53.558Z,11.50
2017-04-10T06:49:53.670Z,11.60
2017-04-10T06:50:53.710Z,11.60
2017-04-10T06:51:54.082Z,11.60
2017-04-10T06:52:54.027Z,11.70
2017-04-10T06:53:53.979Z,11.70
2017-04-10T06:54:53.978Z,11.80
2017-04-10T06:55:53.970Z,11.80
2017-04-10T06:56:54.004Z,11.80
2017-04-10T06:57:54.052Z,11.90
2017-04-10T06:58:54.800Z,11.90
2017-04-10T06:59:54.781Z,11.90
2017-04-10T07:00:55.537Z,11.90
2017-04-10T07:01:55.565Z,12.00
2017-04-10T07:03:04.749Z,12.00
2017-04-10T07:04:04.775Z,12.00
2017-04-10T07:05:05.030Z,12.10
2017-04-10T07:06:05.630Z,12.10
2017-04-10T07:07:05.703Z,12.20
2017-04-10T07:08:06.054Z,12.20
2017-04-10T07:09:06.275Z,12.20
2017-04-10T07:10:06.218Z,12.30
2017-04-10T07:11:06.158Z,12.30
2017-04-10T07:12:06.150Z,12.40
2017-04-10T07:13:06.503Z,12.40
2017-04-10T07:14:06.490Z,12.40
2017-04-10T07:15:06.498Z,12.40
2017-04-10T07:16:06.450Z,12.40
2017-04-10T07:17:06.457Z,12.50
2017-04-10T07:18:06.813Z,12.40
2017-04-10T07:19:06.848Z,12.50
2017-04-10T07:20:06.914Z,12.50
2017-04-10T07:21:07.708Z,12.50
2017-04-10T07:22:08.375Z,12.50
2017-04-10T07:23:08.719Z,12.50
2017-04-10T07:24:08.757Z,12.60
2017-04-10T07:25:08.713Z,12.60
2017-04-10T07:26:08.711Z,12.60
2017-04-10T07:27:08.722Z,12.60
2017-04-10T07:28:09.167Z,12.70
2017-04-10T07:29:09.855Z,12.70
2017-04-10T07:30:09.847Z,12.70
2017-04-10T07:31:09.873Z,12.80
2017-04-10T07:32:09.867Z,12.80
2017-04-10T07:33:09.969Z,12.80
2017-04-10T07:34:10.012Z,12.90
2017-04-10T07:35:10.246Z,13.00
2017-04-10T07:36:10.961Z,13.00
2017-04-10T07:37:11.754Z,13.00
2017-04-10T07:38:12.007Z,13.10
2017-04-10T07:39:11.947Z,13.10
2017-04-10T07:40:12.011Z,13.20
2017-04-10T07:41:11.998Z,13.30
2017-04-10T07:42:12.003Z,13.30
2017-04-10T07:43:12.373Z,13.40
2017-04-10T07:44:12.424Z,13.50
2017-04-10T07:45:12.403Z,13.50
2017-04-10T07:46:12.368Z,13.60
2017-04-10T07:47:12.343Z,13.70
2017-04-10T07:48:13.306Z,13.70
2017-04-10T07:49:13.353Z,13.80
2017-04-10T07:50:13.345Z,14.00
2017-04-10T07:51:13.365Z,14.10
2017-04-10T07:52:13.370Z,14.20
2017-04-10T07:53:13.706Z,14.30
2017-04-10T07:54:13.710Z,14.40
2017-04-10T07:55:13.664Z,14.60
2017-04-10T07:56:13.631Z,14.70
2017-04-10T07:57:13.627Z,14.90
2017-04-10T07:58:13.931Z,15.00
2017-04-10T07:59:13.896Z,15.20
2017-04-10T08:00:13.876Z,15.30
2017-04-10T08:01:14.641Z,15.40
2017-04-10T08:02:14.602Z,15.60
2017-04-10T08:03:15.695Z,15.70
2017-04-10T08:04:15.746Z,15.90
2017-04-10T08:06:16.582Z,16.10
2017-04-10T08:07:17.278Z,16.20
2017-04-10T08:08:17.588Z,16.30
2017-04-10T08:09:17.645Z,16.40
2017-04-10T08:10:17.627Z,16.50
2017-04-10T08:11:18.506Z,16.60
2017-04-10T08:12:18.475Z,16.70
2017-04-10T08:13:18.760Z,16.70
2017-04-10T08:14:18.736Z,16.80
2017-04-10T08:15:18.687Z,16.90
2017-04-10T08:16:18.708Z,17.00
2017-04-10T08:17:18.672Z,17.00
2017-04-10T08:18:18.991Z,17.10
2017-04-10T08:19:18.989Z,17.10
2017-04-10T08:20:19.076Z,17.20
2017-04-10T08:21:19.185Z,17.20
2017-04-10T08:22:19.684Z,17.30
2017-04-10T08:23:20.048Z,17.30
2017-04-10T08:24:20.790Z,17.40
2017-04-10T08:25:21.556Z,17.40
2017-04-10T08:26:21.554Z,17.50
2017-04-10T08:27:21.525Z,17.50
2017-04-10T08:28:22.503Z,17.60
2017-04-10T08:29:22.492Z,17.70
2017-04-10T08:30:22.503Z,17.70
2017-04-10T08:31:22.533Z,17.70
2017-04-10T08:32:22.498Z,17.80
2017-04-10T08:33:22.777Z,17.80
2017-04-10T08:34:23.495Z,17.80
2017-04-10T08:35:24.243Z,17.90
2017-04-10T08:36:24.173Z,17.90
2017-04-10T08:37:24.220Z,18.00
2017-04-10T08:38:24.522Z,18.00
2017-04-10T08:39:24.518Z,18.00
2017-04-10T08:40:24.503Z,18.00
2017-04-10T08:41:25.227Z,18.00
2017-04-10T08:42:25.202Z,18.10
2017-04-10T08:43:26.218Z,18.10
2017-04-10T08:44:26.144Z,18.10
2017-04-10T08:45:26.120Z,18.20
2017-04-10T08:46:26.895Z,18.20
2017-04-10T08:47:27.598Z,18.30
2017-04-10T08:48:27.958Z,18.30
2017-04-10T08:49:27.954Z,18.30
2017-04-10T08:50:27.972Z,18.40
2017-04-10T08:51:27.972Z,18.40
2017-04-10T08:52:27.930Z,18.40
2017-04-10T08:53:28.075Z,18.50
2017-04-10T08:54:28.058Z,18.50
2017-04-10T08:55:28.081Z,18.50
2017-04-10T08:56:28.071Z,18.60
2017-04-10T08:57:28.034Z,18.50
2017-04-10T08:58:29.142Z,18.60
2017-04-10T08:59:29.209Z,18.60
2017-04-10T09:00:29.136Z,18.50
2017-04-10T09:01:29.116Z,18.50
2017-04-10T09:02:29.111Z,18.50
2017-04-10T09:03:29.451Z,18.60
2017-04-10T09:04:29.432Z,18.60
2017-04-10T09:05:30.144Z,18.60
2017-04-10T09:06:30.125Z,18.70
2017-04-10T09:07:30.164Z,18.70
2017-04-10T09:08:31.275Z,18.80
2017-04-10T09:09:31.250Z,18.80
2017-04-10T09:10:31.224Z,18.90
2017-04-10T09:11:31.219Z,18.90
2017-04-10T09:12:31.235Z,19.00
2017-04-10T09:13:31.602Z,19.00
2017-04-10T09:14:31.534Z,19.10
2017-04-10T09:15:31.568Z,19.10
2017-04-10T09:16:31.520Z,19.10
2017-04-10T09:17:31.759Z,19.20
2017-04-10T09:18:32.866Z,19.20
2017-04-10T09:19:32.869Z,19.30
2017-04-10T09:20:32.891Z,19.30
2017-04-10T09:21:33.671Z,19.40
2017-04-10T09:22:33.618Z,19.40
2017-04-10T09:23:33.894Z,19.50
2017-04-10T09:24:33.869Z,19.50
2017-04-10T09:25:33.852Z,19.50
2017-04-10T09:26:34.597Z,19.60
2017-04-10T09:27:34.596Z,19.60
2017-04-10T09:28:34.864Z,19.70
2017-04-10T09:29:34.861Z,19.70
2017-04-10T09:30:34.868Z,19.80
2017-04-10T09:31:34.846Z,19.70
2017-04-10T09:32:34.795Z,19.80
2017-04-10T09:33:35.085Z,19.80
2017-04-10T09:34:35.076Z,19.80
2017-04-10T09:35:35.071Z,19.80
2017-04-10T09:36:35.242Z,19.80
2017-04-10T09:37:35.255Z,19.90
2017-04-10T09:38:36.284Z,19.90
2017-04-10T09:39:36.989Z,19.90
2017-04-10T09:40:36.914Z,20.00
2017-04-10T09:41:36.943Z,20.00
2017-04-10T09:42:36.997Z,20.10
2017-04-10T09:43:37.309Z,20.10
2017-04-10T09:44:37.267Z,20.10
2017-04-10T09:45:37.232Z,20.10
2017-04-10T09:46:37.165Z,20.20
2017-04-10T09:47:37.137Z,20.30
2017-04-10T09:48:37.239Z,20.30
2017-04-10T09:49:37.173Z,20.30
2017-04-10T09:50:37.169Z,20.40
2017-04-10T09:51:37.153Z,20.40
2017-04-10T09:52:37.116Z,20.50
2017-04-10T09:53:37.478Z,20.50
2017-04-10T09:54:37.430Z,20.60
2017-04-10T09:55:37.339Z,20.60
2017-04-10T09:56:37.311Z,20.70
2017-04-10T09:57:37.993Z,20.70
2017-04-10T09:58:38.237Z,20.80
2017-04-10T09:59:38.177Z,20.90
2017-04-10T10:00:38.259Z,20.90
2017-04-10T10:01:38.986Z,20.90
2017-04-10T10:02:39.683Z,21.00
2017-04-10T10:03:39.980Z,21.00
2017-04-10T10:04:39.932Z,21.10
2017-04-10T10:05:40.235Z,21.10
2017-04-10T10:06:40.194Z,21.10
2017-04-10T10:07:40.190Z,21.10
2017-04-10T10:08:40.540Z,21.20
2017-04-10T10:09:40.484Z,21.20
2017-04-10T10:10:40.435Z,21.20
2017-04-10T10:11:40.455Z,21.30
2017-04-10T10:12:40.471Z,21.30
2017-04-10T10:13:40.756Z,21.30
2017-04-10T10:14:40.710Z,21.40
2017-04-10T10:15:41.413Z,21.50
2017-04-10T10:16:42.169Z,21.50
2017-04-10T10:17:42.108Z,21.60
2017-04-10T10:18:42.335Z,21.80
2017-04-10T10:19:42.288Z,21.80
2017-04-10T10:20:42.250Z,21.80
2017-04-10T10:21:42.930Z,21.90
2017-04-10T10:22:42.920Z,22.00
2017-04-10T10:23:43.268Z,22.10
2017-04-10T10:24:44.506Z,22.20
2017-04-10T10:25:44.427Z,22.30
2017-04-10T10:26:44.357Z,22.40
2017-04-10T10:27:45.096Z,22.40
2017-04-10T10:28:45.204Z,22.50
2017-04-10T10:29:45.254Z,22.60
2017-04-10T10:30:45.200Z,22.70
2017-04-10T10:31:45.921Z,22.80
2017-04-10T10:32:46.596Z,22.90
2017-04-10T10:33:46.920Z,23.00
2017-04-10T10:34:46.840Z,23.20
2017-04-10T10:35:46.774Z,23.30
2017-04-10T10:36:46.776Z,23.40
2017-04-10T10:37:47.454Z,23.40
2017-04-10T10:38:47.779Z,23.50
2017-04-10T10:39:47.742Z,23.50
2017-04-10T10:40:47.680Z,23.60
2017-04-10T10:41:47.684Z,23.70
2017-04-10T10:42:47.674Z,23.70
2017-04-10T10:43:48.006Z,23.80
2017-04-10T10:44:47.982Z,23.90
2017-04-10T10:45:47.919Z,23.90
2017-04-10T10:46:47.881Z,24.00
2017-04-10T10:47:47.802Z,24.10
2017-04-10T10:48:48.095Z,24.10
2017-04-10T10:49:48.083Z,24.30
2017-04-10T10:50:48.073Z,24.30
2017-04-10T10:51:48.017Z,24.40
2017-04-10T10:52:47.964Z,24.50
2017-04-10T10:53:48.445Z,24.40
2017-04-10T10:54:48.394Z,24.40
2017-04-10T10:55:48.353Z,24.20
2017-04-10T10:56:48.393Z,24.10
2017-04-10T10:58:48.910Z,24.10
2017-04-10T10:59:48.888Z,24.10
2017-04-10T11:00:48.845Z,24.00
2017-04-10T11:01:49.611Z,23.80
2017-04-10T11:02:49.541Z,23.70
2017-04-10T11:03:49.793Z,23.60
2017-04-10T11:04:50.460Z,23.50
2017-04-10T11:05:50.384Z,23.40
2017-04-10T11:06:50.833Z,23.40
2017-04-10T11:07:51.572Z,23.30
2017-04-10T11:08:52.418Z,23.30
2017-04-10T11:09:52.480Z,23.30
2017-04-10T11:10:52.527Z,23.40
2017-04-10T11:11:52.454Z,23.50
2017-04-10T11:12:52.489Z,23.60
2017-04-10T11:13:52.809Z,23.70
2017-04-10T11:14:52.769Z,23.70
2017-04-10T11:15:52.732Z,23.70
2017-04-10T11:16:53.466Z,23.70
2017-04-10T11:17:54.174Z,23.80
2017-04-10T11:18:55.478Z,23.80
2017-04-10T11:19:55.513Z,23.70
2017-04-10T11:20:56.241Z,23.80
2017-04-10T11:21:57.527Z,23.90
2017-04-10T11:22:57.553Z,24.10
2017-04-10T11:23:57.956Z,24.20
2017-04-10T11:24:57.890Z,24.50
2017-04-10T11:25:57.910Z,24.70
2017-04-10T11:26:59.707Z,24.80
2017-04-10T11:27:59.687Z,25.00
2017-04-10T11:29:00.058Z,25.20
2017-04-10T11:29:59.988Z,25.20
2017-04-10T11:31:00.736Z,25.20
2017-04-10T11:32:00.737Z,25.30
2017-04-10T11:33:00.699Z,25.30
2017-04-10T11:34:01.022Z,25.40
2017-04-10T11:35:01.121Z,25.50
2017-04-10T11:36:01.121Z,25.60
2017-04-10T11:37:01.063Z,25.60
2017-04-10T11:38:01.767Z,25.70
2017-04-10T11:39:02.033Z,25.80
2017-04-10T11:40:02.059Z,25.90
2017-04-10T11:41:02.014Z,25.90
2017-04-10T11:42:02.730Z,25.90
2017-04-10T11:43:03.475Z,25.90
2017-04-10T11:44:03.630Z,26.00
2017-04-10T11:45:03.629Z,26.00
2017-04-10T11:46:03.720Z,26.10
2017-04-10T11:47:03.666Z,26.20
2017-04-10T11:48:03.679Z,26.20
2017-04-10T11:49:04.688Z,26.20
2017-04-10T11:50:04.633Z,26.30
2017-04-10T11:51:04.627Z,26.30
2017-04-10T11:52:05.300Z,26.40
2017-04-10T11:53:05.265Z,26.40
2017-04-10T11:54:05.532Z,26.40
2017-04-10T11:55:05.537Z,26.30
2017-04-10T11:56:05.489Z,26.10
2017-04-10T11:57:06.208Z,25.80
2017-04-10T11:58:06.883Z,25.60
2017-04-10T11:59:07.292Z,25.60
2017-04-10T12:00:07.986Z,25.60
2017-04-10T12:01:07.956Z,25.60
2017-04-10T12:02:08.668Z,25.60
2017-04-10T12:03:08.655Z,25.50
2017-04-10T12:04:08.985Z,25.40
2017-04-10T12:05:08.934Z,25.30
2017-04-10T12:06:08.860Z,25.30
2017-04-10T12:07:08.810Z,25.30
2017-04-10T12:08:09.520Z,25.30
2017-04-10T12:09:09.827Z,25.30
2017-04-10T12:10:09.793Z,25.30
2017-04-10T12:11:09.859Z,25.20
2017-04-10T12:12:09.811Z,25.00
2017-04-10T12:13:09.749Z,24.80
2017-04-10T12:14:09.821Z,24.60
2017-04-10T12:15:09.802Z,24.60
2017-04-10T12:16:09.773Z,24.70
2017-04-10T12:17:09.750Z,24.80
2017-04-10T12:18:09.692Z,24.90
2017-04-10T12:19:09.939Z,25.00
2017-04-10T12:20:09.886Z,25.00
2017-04-10T12:21:09.835Z,25.00
2017-04-10T12:22:11.353Z,24.90
2017-04-10T12:23:11.289Z,24.80
2017-04-10T12:24:11.561Z,24.70
2017-04-10T12:25:11.511Z,24.60
2017-04-10T12:26:11.540Z,24.40
2017-04-10T12:27:11.561Z,24.20
2017-04-10T12:28:11.579Z,24.10
2017-04-10T12:29:11.839Z,24.00
2017-04-10T12:30:11.871Z,23.90
2017-04-10T12:31:11.831Z,23.70
2017-04-10T12:32:12.911Z,23.60
2017-04-10T12:33:12.906Z,23.70
2017-04-10T12:34:13.206Z,23.70
2017-04-10T12:35:13.181Z,23.70
2017-04-10T12:36:13.905Z,23.60
2017-04-10T12:37:14.022Z,23.60
2017-04-10T12:38:14.954Z,23.50
2017-04-10T12:39:15.933Z,23.40
2017-04-10T12:40:15.857Z,23.40
2017-04-10T12:41:15.771Z,23.50
2017-04-10T12:42:16.581Z,23.70
2017-04-10T12:43:16.569Z,23.90
2017-04-10T12:44:16.714Z,24.20
2017-04-10T12:45:17.404Z,24.40
2017-04-10T12:46:17.397Z,24.70
2017-04-10T12:47:17.361Z,24.80
2017-04-10T12:48:18.073Z,24.80
2017-04-10T12:49:18.455Z,24.90
2017-04-10T12:50:18.418Z,24.80
2017-04-10T12:51:18.448Z,24.60
2017-04-10T12:52:18.394Z,24.40
2017-04-10T12:53:18.477Z,24.20
2017-04-10T12:54:18.730Z,24.10
2017-04-10T12:55:18.781Z,24.10
2017-04-10T12:56:18.769Z,24.00
2017-04-10T12:57:18.781Z,24.00
2017-04-10T12:58:19.398Z,24.00
2017-04-10T12:59:19.777Z,23.80
2017-04-10T13:00:20.464Z,23.80
2017-04-10T13:01:20.433Z,23.80
2017-04-10T13:02:20.384Z,23.80
2017-04-10T13:03:20.471Z,23.80
2017-04-10T13:04:20.721Z,23.70
2017-04-10T13:05:20.669Z,23.70
2017-04-10T13:06:20.678Z,23.60
2017-04-10T13:07:20.643Z,23.60
2017-04-10T13:08:21.432Z,23.70
2017-04-10T13:09:21.737Z,24.00
2017-04-10T13:10:21.689Z,24.20
2017-04-10T13:11:22.395Z,24.50
2017-04-10T13:13:22.401Z,24.60
2017-04-10T13:14:23.561Z,24.70
2017-04-10T13:15:24.306Z,24.70
2017-04-10T13:16:24.360Z,24.60
2017-04-10T13:17:24.305Z,24.50
2017-04-10T13:18:24.263Z,24.50
2017-04-10T13:19:24.637Z,24.60